sensor_id;sensor_type;location;lat;lon;timestamp;P1;durP1;ratioP1;P2;durP2;ratioP2
62673;SDS011;48738;47.594;17.638;2022-07-10T00:00:02;5.55;;;4.18;;
62673;SDS011;48738;47.594;17.638;2022-07-10T00:00:50;4.22;;;3.80;;
62673;SDS011;48738;47.594;17.638;2022-07-10T00:01:37;5.80;;;3.85;;
62673;SDS011;48738;47.594;17.638;2022-07-10T00:02:24;4.10;;;3.75;;
62673;SDS011;48738;47.594;17.638;2022-07-10T00:03:11;4.70;;;4.20;;
62673;SDS011;48738;47.594;17.638;2022-07-10T00:03:58;5.65;;;4.25;;
62673;SDS011;48738;47.594;17.638;2022-07-10T00:04:45;4.55;;;3.85;;
62673;SDS011;48738;47.594;17.638;2022-07-10T00:05:32;6.03;;;4.32;;
62673;SDS011;48738;47.594;17.638;2022-07-10T00:06:20;4.72;;;4.22;;
62673;SDS011;48738;47.594;17.638;2022-07-10T00:07:07;5.35;;;4.07;;
62673;SDS011;48738;47.594;17.638;2022-07-10T00:07:54;4.60;;;4.15;;
62673;SDS011;48738;47.594;17.638;2022-07-10T00:08:41;4.65;;;4.00;;
62673;SDS011;48738;47.594;17.638;2022-07-10T00:09:29;4.55;;;4.03;;
62673;SDS011;48738;47.594;17.638;2022-07-10T00:10:17;4.32;;;3.90;;
62673;SDS011;48738;47.594;17.638;2022-07-10T00:11:04;5.57;;;4.05;;
62673;SDS011;48738;47.594;17.638;2022-07-10T00:11:51;5.28;;;4.07;;
62673;SDS011;48738;47.594;17.638;2022-07-10T00:12:38;5.65;;;4.55;;
62673;SDS011;48738;47.594;17.638;2022-07-10T00:13:25;5.68;;;4.22;;
62673;SDS011;48738;47.594;17.638;2022-07-10T00:14:11;5.35;;;4.40;;
62673;SDS011;48738;47.594;17.638;2022-07-10T00:14:58;4.85;;;3.92;;
62673;SDS011;48738;47.594;17.638;2022-07-10T00:15:46;4.45;;;4.00;;
62673;SDS011;48738;47.594;17.638;2022-07-10T00:16:32;5.15;;;4.53;;
62673;SDS011;48738;47.594;17.638;2022-07-10T00:17:20;4.57;;;4.18;;
62673;SDS011;48738;47.594;17.638;2022-07-10T00:18:07;7.30;;;4.37;;
62673;SDS011;48738;47.594;17.638;2022-07-10T00:18:53;6.55;;;4.03;;
62673;SDS011;48738;47.594;17.638;2022-07-10T00:19:41;5.32;;;4.25;;
62673;SDS011;48738;47.594;17.638;2022-07-10T00:20:27;5.18;;;4.12;;
62673;SDS011;48738;47.594;17.638;2022-07-10T00:21:14;4.80;;;4.30;;
62673;SDS011;48738;47.594;17.638;2022-07-10T00:22:02;4.80;;;4.30;;
62673;SDS011;48738;47.594;17.638;2022-07-10T00:22:49;5.47;;;4.28;;
62673;SDS011;48738;47.594;17.638;2022-07-10T00:23:36;5.20;;;4.18;;
62673;SDS011;48738;47.594;17.638;2022-07-10T00:24:23;7.05;;;5.37;;
62673;SDS011;48738;47.594;17.638;2022-07-10T00:25:11;5.10;;;4.28;;
62673;SDS011;48738;47.594;17.638;2022-07-10T00:25:59;4.75;;;4.00;;
62673;SDS011;48738;47.594;17.638;2022-07-10T00:26:45;4.47;;;4.07;;
62673;SDS011;48738;47.594;17.638;2022-07-10T00:27:35;4.85;;;4.03;;
62673;SDS011;48738;47.594;17.638;2022-07-10T00:28:21;5.05;;;4.10;;
62673;SDS011;48738;47.594;17.638;2022-07-10T00:29:09;5.00;;;4.28;;
62673;SDS011;48738;47.594;17.638;2022-07-10T00:29:56;5.18;;;3.97;;
62673;SDS011;48738;47.594;17.638;2022-07-10T00:30:43;4.95;;;4.20;;
62673;SDS011;48738;47.594;17.638;2022-07-10T00:31:30;7.55;;;4.45;;
62673;SDS011;48738;47.594;17.638;2022-07-10T00:32:17;6.78;;;4.30;;
62673;SDS011;48738;47.594;17.638;2022-07-10T00:33:04;4.40;;;4.00;;
62673;SDS011;48738;47.594;17.638;2022-07-10T00:33:51;4.40;;;4.00;;
62673;SDS011;48738;47.594;17.638;2022-07-10T00:34:38;5.07;;;4.15;;
62673;SDS011;48738;47.594;17.638;2022-07-10T00:35:24;4.97;;;4.25;;
62673;SDS011;48738;47.594;17.638;2022-07-10T00:36:11;5.00;;;4.03;;
62673;SDS011;48738;47.594;17.638;2022-07-10T00:36:58;4.90;;;4.40;;
62673;SDS011;48738;47.594;17.638;2022-07-10T00:37:45;6.30;;;4.30;;
62673;SDS011;48738;47.594;17.638;2022-07-10T00:38:32;4.47;;;4.00;;
62673;SDS011;48738;47.594;17.638;2022-07-10T00:39:19;4.37;;;3.90;;
62673;SDS011;48738;47.594;17.638;2022-07-10T00:40:06;5.97;;;4.35;;
62673;SDS011;48738;47.594;17.638;2022-07-10T00:40:53;5.28;;;4.28;;
62673;SDS011;48738;47.594;17.638;2022-07-10T00:41:40;4.57;;;4.15;;
62673;SDS011;48738;47.594;17.638;2022-07-10T00:42:27;5.20;;;4.18;;
62673;SDS011;48738;47.594;17.638;2022-07-10T00:43:14;5.78;;;4.43;;
62673;SDS011;48738;47.594;17.638;2022-07-10T00:44:01;6.50;;;4.18;;
62673;SDS011;48738;47.594;17.638;2022-07-10T00:44:48;5.40;;;4.45;;
62673;SDS011;48738;47.594;17.638;2022-07-10T00:45:35;5.35;;;4.15;;
62673;SDS011;48738;47.594;17.638;2022-07-10T00:46:23;4.97;;;4.22;;
62673;SDS011;48738;47.594;17.638;2022-07-10T00:47:11;5.15;;;4.30;;
62673;SDS011;48738;47.594;17.638;2022-07-10T00:47:57;7.20;;;4.87;;
62673;SDS011;48738;47.594;17.638;2022-07-10T00:48:44;4.90;;;4.40;;
62673;SDS011;48738;47.594;17.638;2022-07-10T00:49:32;5.15;;;4.30;;
62673;SDS011;48738;47.594;17.638;2022-07-10T00:50:19;7.03;;;4.32;;
62673;SDS011;48738;47.594;17.638;2022-07-10T00:51:06;7.78;;;4.30;;
62673;SDS011;48738;47.594;17.638;2022-07-10T00:51:53;5.25;;;4.60;;
62673;SDS011;48738;47.594;17.638;2022-07-10T00:52:40;4.75;;;4.10;;
62673;SDS011;48738;47.594;17.638;2022-07-10T00:53:27;4.53;;;4.12;;
62673;SDS011;48738;47.594;17.638;2022-07-10T00:54:14;8.00;;;4.60;;
62673;SDS011;48738;47.594;17.638;2022-07-10T00:55:01;5.18;;;4.05;;
62673;SDS011;48738;47.594;17.638;2022-07-10T00:55:48;5.68;;;4.50;;
62673;SDS011;48738;47.594;17.638;2022-07-10T00:56:35;5.30;;;4.35;;
62673;SDS011;48738;47.594;17.638;2022-07-10T00:57:22;5.15;;;4.20;;
62673;SDS011;48738;47.594;17.638;2022-07-10T00:58:09;6.05;;;4.20;;
62673;SDS011;48738;47.594;17.638;2022-07-10T00:58:57;4.78;;;4.10;;
62673;SDS011;48738;47.594;17.638;2022-07-10T00:59:45;5.45;;;4.00;;
62673;SDS011;48738;47.594;17.638;2022-07-10T01:00:32;4.90;;;4.32;;
62673;SDS011;48738;47.594;17.638;2022-07-10T01:01:20;7.07;;;4.60;;
62673;SDS011;48738;47.594;17.638;2022-07-10T01:02:09;5.72;;;4.87;;
62673;SDS011;48738;47.594;17.638;2022-07-10T01:02:56;5.53;;;4.53;;
62673;SDS011;48738;47.594;17.638;2022-07-10T01:03:44;5.15;;;4.30;;
62673;SDS011;48738;47.594;17.638;2022-07-10T01:04:32;5.32;;;4.25;;
62673;SDS011;48738;47.594;17.638;2022-07-10T01:05:20;5.72;;;4.47;;
62673;SDS011;48738;47.594;17.638;2022-07-10T01:06:07;5.18;;;4.30;;
62673;SDS011;48738;47.594;17.638;2022-07-10T01:06:53;5.18;;;4.37;;
62673;SDS011;48738;47.594;17.638;2022-07-10T01:07:40;5.70;;;4.20;;
62673;SDS011;48738;47.594;17.638;2022-07-10T01:08:27;4.78;;;4.30;;
62673;SDS011;48738;47.594;17.638;2022-07-10T01:09:14;5.90;;;4.62;;
62673;SDS011;48738;47.594;17.638;2022-07-10T01:10:01;4.93;;;4.18;;
62673;SDS011;48738;47.594;17.638;2022-07-10T01:10:48;5.20;;;4.57;;
62673;SDS011;48738;47.594;17.638;2022-07-10T01:11:36;10.00;;;4.85;;
62673;SDS011;48738;47.594;17.638;2022-07-10T01:12:23;5.20;;;4.47;;
62673;SDS011;48738;47.594;17.638;2022-07-10T01:13:10;5.20;;;4.70;;
62673;SDS011;48738;47.594;17.638;2022-07-10T01:13:57;6.45;;;4.50;;
62673;SDS011;48738;47.594;17.638;2022-07-10T01:14:44;6.20;;;4.45;;
62673;SDS011;48738;47.594;17.638;2022-07-10T01:15:30;4.40;;;4.00;;
62673;SDS011;48738;47.594;17.638;2022-07-10T01:16:19;4.95;;;4.45;;
62673;SDS011;48738;47.594;17.638;2022-07-10T01:17:06;4.87;;;4.30;;
62673;SDS011;48738;47.594;17.638;2022-07-10T01:17:55;7.90;;;4.45;;
62673;SDS011;48738;47.594;17.638;2022-07-10T01:18:42;5.10;;;4.60;;
62673;SDS011;48738;47.594;17.638;2022-07-10T01:19:29;4.80;;;4.30;;
62673;SDS011;48738;47.594;17.638;2022-07-10T01:20:16;5.12;;;4.45;;
62673;SDS011;48738;47.594;17.638;2022-07-10T01:21:03;5.62;;;4.65;;
62673;SDS011;48738;47.594;17.638;2022-07-10T01:21:50;5.00;;;4.50;;
62673;SDS011;48738;47.594;17.638;2022-07-10T01:22:37;5.68;;;4.70;;
62673;SDS011;48738;47.594;17.638;2022-07-10T01:23:24;7.25;;;4.87;;
62673;SDS011;48738;47.594;17.638;2022-07-10T01:24:11;5.00;;;4.50;;
62673;SDS011;48738;47.594;17.638;2022-07-10T01:24:58;4.82;;;4.35;;
62673;SDS011;48738;47.594;17.638;2022-07-10T01:25:45;4.85;;;4.43;;
62673;SDS011;48738;47.594;17.638;2022-07-10T01:26:32;6.28;;;4.85;;
62673;SDS011;48738;47.594;17.638;2022-07-10T01:27:19;4.87;;;4.30;;
62673;SDS011;48738;47.594;17.638;2022-07-10T01:28:06;6.07;;;4.10;;
62673;SDS011;48738;47.594;17.638;2022-07-10T01:28:53;5.50;;;4.78;;
62673;SDS011;48738;47.594;17.638;2022-07-10T01:29:41;4.60;;;4.10;;
62673;SDS011;48738;47.594;17.638;2022-07-10T01:30:28;5.20;;;4.35;;
62673;SDS011;48738;47.594;17.638;2022-07-10T01:31:16;6.25;;;4.35;;
62673;SDS011;48738;47.594;17.638;2022-07-10T01:32:04;5.70;;;4.32;;
62673;SDS011;48738;47.594;17.638;2022-07-10T01:32:51;6.43;;;4.35;;
62673;SDS011;48738;47.594;17.638;2022-07-10T01:33:38;6.28;;;4.25;;
62673;SDS011;48738;47.594;17.638;2022-07-10T01:34:25;4.87;;;4.37;;
62673;SDS011;48738;47.594;17.638;2022-07-10T01:35:12;4.72;;;4.25;;
62673;SDS011;48738;47.594;17.638;2022-07-10T01:36:00;5.43;;;4.20;;
62673;SDS011;48738;47.594;17.638;2022-07-10T01:36:47;4.68;;;4.18;;
62673;SDS011;48738;47.594;17.638;2022-07-10T01:37:34;4.35;;;3.95;;
62673;SDS011;48738;47.594;17.638;2022-07-10T01:38:21;4.47;;;4.07;;
62673;SDS011;48738;47.594;17.638;2022-07-10T01:39:07;5.15;;;4.47;;
62673;SDS011;48738;47.594;17.638;2022-07-10T01:39:54;5.20;;;4.57;;
62673;SDS011;48738;47.594;17.638;2022-07-10T01:40:41;4.93;;;4.15;;
62673;SDS011;48738;47.594;17.638;2022-07-10T01:41:28;5.60;;;4.30;;
62673;SDS011;48738;47.594;17.638;2022-07-10T01:42:15;4.72;;;3.87;;
62673;SDS011;48738;47.594;17.638;2022-07-10T01:43:01;5.18;;;4.32;;
62673;SDS011;48738;47.594;17.638;2022-07-10T01:43:48;4.43;;;3.95;;
62673;SDS011;48738;47.594;17.638;2022-07-10T01:44:35;4.90;;;4.32;;
62673;SDS011;48738;47.594;17.638;2022-07-10T01:45:22;4.30;;;3.90;;
62673;SDS011;48738;47.594;17.638;2022-07-10T01:46:09;4.87;;;4.37;;
62673;SDS011;48738;47.594;17.638;2022-07-10T01:46:59;5.70;;;4.28;;
62673;SDS011;48738;47.594;17.638;2022-07-10T01:47:46;5.95;;;3.83;;
62673;SDS011;48738;47.594;17.638;2022-07-10T01:48:32;5.10;;;4.07;;
62673;SDS011;48738;47.594;17.638;2022-07-10T01:49:19;5.15;;;4.05;;
62673;SDS011;48738;47.594;17.638;2022-07-10T01:50:06;6.35;;;4.40;;
62673;SDS011;48738;47.594;17.638;2022-07-10T01:50:53;4.53;;;4.12;;
62673;SDS011;48738;47.594;17.638;2022-07-10T01:51:40;5.32;;;4.10;;
62673;SDS011;48738;47.594;17.638;2022-07-10T01:52:28;4.95;;;4.40;;
62673;SDS011;48738;47.594;17.638;2022-07-10T01:53:15;5.68;;;4.05;;
62673;SDS011;48738;47.594;17.638;2022-07-10T01:54:02;7.30;;;4.50;;
62673;SDS011;48738;47.594;17.638;2022-07-10T01:54:49;4.93;;;4.20;;
62673;SDS011;48738;47.594;17.638;2022-07-10T01:55:36;4.37;;;3.97;;
62673;SDS011;48738;47.594;17.638;2022-07-10T01:56:23;5.55;;;4.35;;
62673;SDS011;48738;47.594;17.638;2022-07-10T01:57:10;6.40;;;4.40;;
62673;SDS011;48738;47.594;17.638;2022-07-10T01:57:57;4.80;;;4.30;;
62673;SDS011;48738;47.594;17.638;2022-07-10T01:58:43;4.70;;;4.20;;
62673;SDS011;48738;47.594;17.638;2022-07-10T01:59:30;6.15;;;4.40;;
62673;SDS011;48738;47.594;17.638;2022-07-10T02:00:17;5.05;;;4.55;;
62673;SDS011;48738;47.594;17.638;2022-07-10T02:01:04;5.00;;;4.37;;
62673;SDS011;48738;47.594;17.638;2022-07-10T02:01:52;5.03;;;4.53;;
62673;SDS011;48738;47.594;17.638;2022-07-10T02:02:39;5.82;;;4.30;;
62673;SDS011;48738;47.594;17.638;2022-07-10T02:03:26;4.75;;;4.25;;
62673;SDS011;48738;47.594;17.638;2022-07-10T02:04:31;5.57;;;4.40;;
62673;SDS011;48738;47.594;17.638;2022-07-10T02:05:27;5.93;;;4.57;;
62673;SDS011;48738;47.594;17.638;2022-07-10T02:06:14;6.82;;;4.40;;
62673;SDS011;48738;47.594;17.638;2022-07-10T02:07:01;5.32;;;4.35;;
62673;SDS011;48738;47.594;17.638;2022-07-10T02:07:48;5.62;;;4.47;;
62673;SDS011;48738;47.594;17.638;2022-07-10T02:08:35;5.57;;;4.20;;
62673;SDS011;48738;47.594;17.638;2022-07-10T02:09:22;5.18;;;4.00;;
62673;SDS011;48738;47.594;17.638;2022-07-10T02:10:08;5.62;;;4.40;;
62673;SDS011;48738;47.594;17.638;2022-07-10T02:10:55;5.45;;;4.28;;
62673;SDS011;48738;47.594;17.638;2022-07-10T02:11:42;5.10;;;4.10;;
62673;SDS011;48738;47.594;17.638;2022-07-10T02:12:29;4.80;;;4.30;;
62673;SDS011;48738;47.594;17.638;2022-07-10T02:13:16;5.12;;;4.40;;
62673;SDS011;48738;47.594;17.638;2022-07-10T02:14:06;5.62;;;4.32;;
62673;SDS011;48738;47.594;17.638;2022-07-10T02:14:54;6.50;;;4.28;;
62673;SDS011;48738;47.594;17.638;2022-07-10T02:15:49;4.80;;;4.30;;
62673;SDS011;48738;47.594;17.638;2022-07-10T02:16:36;5.07;;;4.60;;
62673;SDS011;48738;47.594;17.638;2022-07-10T02:17:23;7.30;;;4.32;;
62673;SDS011;48738;47.594;17.638;2022-07-10T02:18:10;4.82;;;4.28;;
62673;SDS011;48738;47.594;17.638;2022-07-10T02:18:57;4.22;;;3.83;;
62673;SDS011;48738;47.594;17.638;2022-07-10T02:19:43;6.15;;;4.45;;
62673;SDS011;48738;47.594;17.638;2022-07-10T02:20:30;5.43;;;4.07;;
62673;SDS011;48738;47.594;17.638;2022-07-10T02:21:19;4.75;;;4.20;;
62673;SDS011;48738;47.594;17.638;2022-07-10T02:22:05;4.65;;;4.00;;
62673;SDS011;48738;47.594;17.638;2022-07-10T02:22:52;4.57;;;4.10;;
62673;SDS011;48738;47.594;17.638;2022-07-10T02:23:39;7.97;;;4.28;;
62673;SDS011;48738;47.594;17.638;2022-07-10T02:24:27;4.85;;;4.32;;
62673;SDS011;48738;47.594;17.638;2022-07-10T02:25:14;4.80;;;4.30;;
62673;SDS011;48738;47.594;17.638;2022-07-10T02:26:01;6.72;;;4.32;;
62673;SDS011;48738;47.594;17.638;2022-07-10T02:26:48;5.65;;;4.30;;
62673;SDS011;48738;47.594;17.638;2022-07-10T02:27:35;4.37;;;3.97;;
62673;SDS011;48738;47.594;17.638;2022-07-10T02:28:22;5.12;;;4.30;;
62673;SDS011;48738;47.594;17.638;2022-07-10T02:29:09;4.70;;;4.30;;
62673;SDS011;48738;47.594;17.638;2022-07-10T02:29:56;6.85;;;4.30;;
62673;SDS011;48738;47.594;17.638;2022-07-10T02:30:42;6.28;;;4.22;;
62673;SDS011;48738;47.594;17.638;2022-07-10T02:31:29;4.75;;;4.25;;
62673;SDS011;48738;47.594;17.638;2022-07-10T02:32:16;5.80;;;4.28;;
62673;SDS011;48738;47.594;17.638;2022-07-10T02:33:03;7.50;;;4.47;;
62673;SDS011;48738;47.594;17.638;2022-07-10T02:33:50;4.75;;;4.25;;
62673;SDS011;48738;47.594;17.638;2022-07-10T02:34:37;4.80;;;4.25;;
62673;SDS011;48738;47.594;17.638;2022-07-10T02:35:23;6.00;;;4.62;;
62673;SDS011;48738;47.594;17.638;2022-07-10T02:36:10;6.00;;;4.50;;
62673;SDS011;48738;47.594;17.638;2022-07-10T02:36:57;5.28;;;4.43;;
62673;SDS011;48738;47.594;17.638;2022-07-10T02:37:44;4.75;;;4.00;;
62673;SDS011;48738;47.594;17.638;2022-07-10T02:38:31;4.65;;;4.15;;
62673;SDS011;48738;47.594;17.638;2022-07-10T02:39:17;4.70;;;4.20;;
62673;SDS011;48738;47.594;17.638;2022-07-10T02:40:05;5.62;;;4.30;;
62673;SDS011;48738;47.594;17.638;2022-07-10T02:40:53;5.03;;;4.35;;
62673;SDS011;48738;47.594;17.638;2022-07-10T02:41:39;5.32;;;4.50;;
62673;SDS011;48738;47.594;17.638;2022-07-10T02:42:27;8.40;;;4.00;;
62673;SDS011;48738;47.594;17.638;2022-07-10T02:43:14;4.93;;;4.43;;
62673;SDS011;48738;47.594;17.638;2022-07-10T02:44:01;4.80;;;4.20;;
62673;SDS011;48738;47.594;17.638;2022-07-10T02:44:49;5.62;;;4.60;;
62673;SDS011;48738;47.594;17.638;2022-07-10T02:45:36;5.55;;;4.95;;
62673;SDS011;48738;47.594;17.638;2022-07-10T02:46:28;5.32;;;4.30;;
62673;SDS011;48738;47.594;17.638;2022-07-10T02:47:15;4.90;;;4.25;;
62673;SDS011;48738;47.594;17.638;2022-07-10T02:48:02;6.00;;;4.82;;
62673;SDS011;48738;47.594;17.638;2022-07-10T02:48:49;4.93;;;4.12;;
62673;SDS011;48738;47.594;17.638;2022-07-10T02:49:36;5.18;;;4.40;;
62673;SDS011;48738;47.594;17.638;2022-07-10T02:50:22;5.97;;;4.72;;
62673;SDS011;48738;47.594;17.638;2022-07-10T02:51:09;4.97;;;4.30;;
62673;SDS011;48738;47.594;17.638;2022-07-10T02:51:56;5.93;;;4.78;;
62673;SDS011;48738;47.594;17.638;2022-07-10T02:52:44;5.00;;;4.37;;
62673;SDS011;48738;47.594;17.638;2022-07-10T02:53:31;5.18;;;4.55;;
62673;SDS011;48738;47.594;17.638;2022-07-10T02:54:18;4.97;;;4.30;;
62673;SDS011;48738;47.594;17.638;2022-07-10T02:55:05;5.40;;;4.35;;
62673;SDS011;48738;47.594;17.638;2022-07-10T02:55:52;4.97;;;4.47;;
62673;SDS011;48738;47.594;17.638;2022-07-10T02:56:39;4.75;;;4.30;;
62673;SDS011;48738;47.594;17.638;2022-07-10T02:57:26;5.35;;;4.30;;
62673;SDS011;48738;47.594;17.638;2022-07-10T02:58:13;8.27;;;4.37;;
62673;SDS011;48738;47.594;17.638;2022-07-10T02:59:01;5.55;;;4.22;;
62673;SDS011;48738;47.594;17.638;2022-07-10T02:59:48;4.97;;;4.43;;
62673;SDS011;48738;47.594;17.638;2022-07-10T03:00:35;6.68;;;4.22;;
62673;SDS011;48738;47.594;17.638;2022-07-10T03:01:23;4.30;;;3.90;;
62673;SDS011;48738;47.594;17.638;2022-07-10T03:02:10;5.03;;;4.35;;
62673;SDS011;48738;47.594;17.638;2022-07-10T03:02:57;5.50;;;4.07;;
62673;SDS011;48738;47.594;17.638;2022-07-10T03:03:43;4.82;;;4.15;;
62673;SDS011;48738;47.594;17.638;2022-07-10T03:04:30;4.90;;;4.40;;
62673;SDS011;48738;47.594;17.638;2022-07-10T03:05:17;6.05;;;4.45;;
62673;SDS011;48738;47.594;17.638;2022-07-10T03:06:04;5.12;;;4.03;;
62673;SDS011;48738;47.594;17.638;2022-07-10T03:06:51;5.20;;;4.40;;
62673;SDS011;48738;47.594;17.638;2022-07-10T03:07:38;5.00;;;4.28;;
62673;SDS011;48738;47.594;17.638;2022-07-10T03:08:25;4.72;;;4.10;;
62673;SDS011;48738;47.594;17.638;2022-07-10T03:09:11;6.87;;;4.62;;
62673;SDS011;48738;47.594;17.638;2022-07-10T03:09:58;5.87;;;4.43;;
62673;SDS011;48738;47.594;17.638;2022-07-10T03:10:45;6.18;;;4.20;;
62673;SDS011;48738;47.594;17.638;2022-07-10T03:11:32;4.55;;;4.15;;
62673;SDS011;48738;47.594;17.638;2022-07-10T03:12:19;4.80;;;4.30;;
62673;SDS011;48738;47.594;17.638;2022-07-10T03:13:06;5.78;;;4.32;;
62673;SDS011;48738;47.594;17.638;2022-07-10T03:13:52;5.37;;;4.65;;
62673;SDS011;48738;47.594;17.638;2022-07-10T03:14:39;5.03;;;4.37;;
62673;SDS011;48738;47.594;17.638;2022-07-10T03:15:26;6.30;;;4.12;;
62673;SDS011;48738;47.594;17.638;2022-07-10T03:16:13;6.72;;;4.20;;
62673;SDS011;48738;47.594;17.638;2022-07-10T03:17:00;6.57;;;4.60;;
62673;SDS011;48738;47.594;17.638;2022-07-10T03:17:47;4.80;;;4.30;;
62673;SDS011;48738;47.594;17.638;2022-07-10T03:18:34;4.93;;;4.43;;
62673;SDS011;48738;47.594;17.638;2022-07-10T03:19:21;5.20;;;4.57;;
62673;SDS011;48738;47.594;17.638;2022-07-10T03:20:08;5.07;;;4.57;;
62673;SDS011;48738;47.594;17.638;2022-07-10T03:20:55;5.00;;;4.50;;
62673;SDS011;48738;47.594;17.638;2022-07-10T03:21:42;5.25;;;4.20;;
62673;SDS011;48738;47.594;17.638;2022-07-10T03:22:29;5.20;;;4.47;;
62673;SDS011;48738;47.594;17.638;2022-07-10T03:23:17;5.03;;;4.37;;
62673;SDS011;48738;47.594;17.638;2022-07-10T03:24:04;5.40;;;4.40;;
62673;SDS011;48738;47.594;17.638;2022-07-10T03:24:51;8.23;;;4.50;;
62673;SDS011;48738;47.594;17.638;2022-07-10T03:25:38;5.00;;;4.47;;
62673;SDS011;48738;47.594;17.638;2022-07-10T03:26:24;5.00;;;4.50;;
62673;SDS011;48738;47.594;17.638;2022-07-10T03:27:12;4.97;;;4.47;;
62673;SDS011;48738;47.594;17.638;2022-07-10T03:28:00;5.10;;;4.60;;
62673;SDS011;48738;47.594;17.638;2022-07-10T03:28:46;6.12;;;4.50;;
62673;SDS011;48738;47.594;17.638;2022-07-10T03:29:33;6.10;;;4.32;;
62673;SDS011;48738;47.594;17.638;2022-07-10T03:30:20;4.87;;;4.47;;
62673;SDS011;48738;47.594;17.638;2022-07-10T03:31:07;5.95;;;4.60;;
62673;SDS011;48738;47.594;17.638;2022-07-10T03:31:54;4.87;;;4.28;;
62673;SDS011;48738;47.594;17.638;2022-07-10T03:32:41;5.10;;;4.50;;
62673;SDS011;48738;47.594;17.638;2022-07-10T03:33:27;5.07;;;4.30;;
62673;SDS011;48738;47.594;17.638;2022-07-10T03:34:15;5.72;;;4.70;;
62673;SDS011;48738;47.594;17.638;2022-07-10T03:35:01;6.75;;;4.50;;
62673;SDS011;48738;47.594;17.638;2022-07-10T03:35:48;5.57;;;4.43;;
62673;SDS011;48738;47.594;17.638;2022-07-10T03:36:35;5.07;;;4.30;;
62673;SDS011;48738;47.594;17.638;2022-07-10T03:37:22;4.75;;;4.15;;
62673;SDS011;48738;47.594;17.638;2022-07-10T03:38:09;5.00;;;4.50;;
62673;SDS011;48738;47.594;17.638;2022-07-10T03:38:56;4.78;;;4.28;;
62673;SDS011;48738;47.594;17.638;2022-07-10T03:39:43;5.20;;;4.20;;
62673;SDS011;48738;47.594;17.638;2022-07-10T03:40:29;6.05;;;4.07;;
62673;SDS011;48738;47.594;17.638;2022-07-10T03:41:16;4.97;;;4.45;;
62673;SDS011;48738;47.594;17.638;2022-07-10T03:42:03;4.40;;;4.00;;
62673;SDS011;48738;47.594;17.638;2022-07-10T03:42:50;5.05;;;4.40;;
62673;SDS011;48738;47.594;17.638;2022-07-10T03:43:37;6.15;;;4.50;;
62673;SDS011;48738;47.594;17.638;2022-07-10T03:44:24;5.68;;;4.32;;
62673;SDS011;48738;47.594;17.638;2022-07-10T03:45:11;5.40;;;4.30;;
62673;SDS011;48738;47.594;17.638;2022-07-10T03:45:58;4.93;;;4.30;;
62673;SDS011;48738;47.594;17.638;2022-07-10T03:46:45;4.90;;;4.20;;
62673;SDS011;48738;47.594;17.638;2022-07-10T03:47:32;4.70;;;4.18;;
62673;SDS011;48738;47.594;17.638;2022-07-10T03:48:19;7.10;;;4.60;;
62673;SDS011;48738;47.594;17.638;2022-07-10T03:49:05;5.03;;;4.50;;
62673;SDS011;48738;47.594;17.638;2022-07-10T03:49:52;6.12;;;4.60;;
62673;SDS011;48738;47.594;17.638;2022-07-10T03:50:39;5.82;;;4.30;;
62673;SDS011;48738;47.594;17.638;2022-07-10T03:51:26;5.28;;;4.78;;
62673;SDS011;48738;47.594;17.638;2022-07-10T03:52:12;5.37;;;4.80;;
62673;SDS011;48738;47.594;17.638;2022-07-10T03:52:59;6.57;;;4.60;;
62673;SDS011;48738;47.594;17.638;2022-07-10T03:53:46;5.70;;;4.55;;
62673;SDS011;48738;47.594;17.638;2022-07-10T03:54:33;4.82;;;4.32;;
62673;SDS011;48738;47.594;17.638;2022-07-10T03:55:20;5.35;;;4.37;;
62673;SDS011;48738;47.594;17.638;2022-07-10T03:56:07;4.90;;;4.40;;
62673;SDS011;48738;47.594;17.638;2022-07-10T03:56:54;4.43;;;4.03;;
62673;SDS011;48738;47.594;17.638;2022-07-10T03:58:01;5.43;;;4.40;;
62673;SDS011;48738;47.594;17.638;2022-07-10T03:58:50;5.50;;;4.40;;
62673;SDS011;48738;47.594;17.638;2022-07-10T03:59:37;4.70;;;4.30;;
62673;SDS011;48738;47.594;17.638;2022-07-10T04:00:24;5.95;;;4.50;;
62673;SDS011;48738;47.594;17.638;2022-07-10T04:01:13;5.57;;;4.25;;
62673;SDS011;48738;47.594;17.638;2022-07-10T04:02:00;5.12;;;4.50;;
62673;SDS011;48738;47.594;17.638;2022-07-10T04:02:47;5.03;;;4.10;;
62673;SDS011;48738;47.594;17.638;2022-07-10T04:03:35;5.90;;;4.65;;
62673;SDS011;48738;47.594;17.638;2022-07-10T04:04:22;4.32;;;3.90;;
62673;SDS011;48738;47.594;17.638;2022-07-10T04:05:09;5.07;;;3.80;;
62673;SDS011;48738;47.594;17.638;2022-07-10T04:05:56;5.50;;;3.80;;
62673;SDS011;48738;47.594;17.638;2022-07-10T04:06:43;4.00;;;3.60;;
62673;SDS011;48738;47.594;17.638;2022-07-10T04:07:30;4.15;;;3.58;;
62673;SDS011;48738;47.594;17.638;2022-07-10T04:08:16;4.45;;;3.78;;
62673;SDS011;48738;47.594;17.638;2022-07-10T04:09:03;4.95;;;3.28;;
62673;SDS011;48738;47.594;17.638;2022-07-10T04:09:50;5.07;;;3.40;;
62673;SDS011;48738;47.594;17.638;2022-07-10T04:10:37;4.72;;;3.40;;
62673;SDS011;48738;47.594;17.638;2022-07-10T04:11:25;4.05;;;3.40;;
62673;SDS011;48738;47.594;17.638;2022-07-10T04:12:12;4.18;;;3.47;;
62673;SDS011;48738;47.594;17.638;2022-07-10T04:12:58;5.62;;;3.53;;
62673;SDS011;48738;47.594;17.638;2022-07-10T04:13:45;3.62;;;3.10;;
62673;SDS011;48738;47.594;17.638;2022-07-10T04:14:32;3.70;;;3.40;;
62673;SDS011;48738;47.594;17.638;2022-07-10T04:15:19;3.97;;;3.58;;
62673;SDS011;48738;47.594;17.638;2022-07-10T04:16:06;4.30;;;3.25;;
62673;SDS011;48738;47.594;17.638;2022-07-10T04:16:56;4.12;;;3.30;;
62673;SDS011;48738;47.594;17.638;2022-07-10T04:17:43;5.37;;;3.42;;
62673;SDS011;48738;47.594;17.638;2022-07-10T04:18:30;3.70;;;2.92;;
62673;SDS011;48738;47.594;17.638;2022-07-10T04:19:17;4.25;;;3.30;;
62673;SDS011;48738;47.594;17.638;2022-07-10T04:20:04;3.70;;;3.35;;
62673;SDS011;48738;47.594;17.638;2022-07-10T04:20:52;3.35;;;3.15;;
62673;SDS011;48738;47.594;17.638;2022-07-10T04:21:39;3.40;;;3.10;;
62673;SDS011;48738;47.594;17.638;2022-07-10T04:22:28;3.72;;;3.10;;
62673;SDS011;48738;47.594;17.638;2022-07-10T04:23:15;3.10;;;2.90;;
62673;SDS011;48738;47.594;17.638;2022-07-10T04:24:02;4.00;;;3.20;;
62673;SDS011;48738;47.594;17.638;2022-07-10T04:24:52;3.60;;;3.30;;
62673;SDS011;48738;47.594;17.638;2022-07-10T04:25:40;5.43;;;3.10;;
62673;SDS011;48738;47.594;17.638;2022-07-10T04:26:26;3.92;;;2.95;;
62673;SDS011;48738;47.594;17.638;2022-07-10T04:27:13;5.07;;;3.53;;
62673;SDS011;48738;47.594;17.638;2022-07-10T04:28:03;5.00;;;2.85;;
62673;SDS011;48738;47.594;17.638;2022-07-10T04:28:50;3.55;;;3.22;;
62673;SDS011;48738;47.594;17.638;2022-07-10T04:29:36;3.70;;;3.40;;
62673;SDS011;48738;47.594;17.638;2022-07-10T04:30:23;4.20;;;3.10;;
62673;SDS011;48738;47.594;17.638;2022-07-10T04:31:10;3.35;;;3.10;;
62673;SDS011;48738;47.594;17.638;2022-07-10T04:31:57;3.90;;;2.97;;
62673;SDS011;48738;47.594;17.638;2022-07-10T04:32:44;4.12;;;3.10;;
62673;SDS011;48738;47.594;17.638;2022-07-10T04:33:31;3.83;;;2.80;;
62673;SDS011;48738;47.594;17.638;2022-07-10T04:34:18;3.37;;;3.08;;
62673;SDS011;48738;47.594;17.638;2022-07-10T04:35:05;3.20;;;3.00;;
62673;SDS011;48738;47.594;17.638;2022-07-10T04:35:52;3.37;;;3.05;;
62673;SDS011;48738;47.594;17.638;2022-07-10T04:36:38;4.03;;;3.03;;
62673;SDS011;48738;47.594;17.638;2022-07-10T04:37:25;3.20;;;2.70;;
62673;SDS011;48738;47.594;17.638;2022-07-10T04:38:12;3.47;;;3.17;;
62673;SDS011;48738;47.594;17.638;2022-07-10T04:38:59;4.12;;;3.10;;
62673;SDS011;48738;47.594;17.638;2022-07-10T04:39:46;3.12;;;2.90;;